sensor_id;sensor_type;location;lat;lon;timestamp;P1;durP1;ratioP1;P2;durP2;ratioP2
33954;SDS011;20233;50.804;7.126;2023-03-31T00:00:35;4.57;;;0.45;;
33954;SDS011;20233;50.804;7.126;2023-03-31T00:03:00;4.65;;;0.20;;
33954;SDS011;20233;50.804;7.126;2023-03-31T00:05:26;2.38;;;0.25;;
33954;SDS011;20233;50.804;7.126;2023-03-31T00:07:53;4.43;;;0.22;;
33954;SDS011;20233;50.804;7.126;2023-03-31T00:10:25;4.25;;;0.30;;
33954;SDS011;20233;50.804;7.126;2023-03-31T00:12:51;4.45;;;0.10;;
33954;SDS011;20233;50.804;7.126;2023-03-31T00:15:17;4.07;;;0.10;;
33954;SDS011;20233;50.804;7.126;2023-03-31T00:17:42;4.03;;;0.30;;
33954;SDS011;20233;50.804;7.126;2023-03-31T00:20:08;4.00;;;0.20;;
33954;SDS011;20233;50.804;7.126;2023-03-31T00:22:36;5.38;;;0.20;;
33954;SDS011;20233;50.804;7.126;2023-03-31T00:25:03;5.18;;;0.45;;
33954;SDS011;20233;50.804;7.126;2023-03-31T00:27:29;3.53;;;0.25;;
33954;SDS011;20233;50.804;7.126;2023-03-31T00:29:55;4.30;;;0.30;;
33954;SDS011;20233;50.804;7.126;2023-03-31T00:32:20;3.65;;;0.20;;
33954;SDS011;20233;50.804;7.126;2023-03-31T00:34:46;4.22;;;0.20;;
33954;SDS011;20233;50.804;7.126;2023-03-31T00:37:11;2.45;;;0.10;;
33954;SDS011;20233;50.804;7.126;2023-03-31T00:39:38;3.65;;;0.10;;
33954;SDS011;20233;50.804;7.126;2023-03-31T00:42:05;3.17;;;0.20;;
33954;SDS011;20233;50.804;7.126;2023-03-31T00:44:34;2.95;;;0.10;;
33954;SDS011;20233;50.804;7.126;2023-03-31T00:47:12;2.13;;;0.10;;
33954;SDS011;20233;50.804;7.126;2023-03-31T00:49:41;1.92;;;0.20;;
33954;SDS011;20233;50.804;7.126;2023-03-31T00:52:17;3.45;;;0.10;;
33954;SDS011;20233;50.804;7.126;2023-03-31T00:55:09;2.28;;;0.10;;
33954;SDS011;20233;50.804;7.126;2023-03-31T00:57:40;1.27;;;0.20;;
33954;SDS011;20233;50.804;7.126;2023-03-31T01:00:11;1.83;;;0.15;;
33954;SDS011;20233;50.804;7.126;2023-03-31T01:02:41;2.97;;;0.20;;
33954;SDS011;20233;50.804;7.126;2023-03-31T01:05:16;2.72;;;0.20;;
33954;SDS011;20233;50.804;7.126;2023-03-31T01:08:05;3.40;;;0.17;;
33954;SDS011;20233;50.804;7.126;2023-03-31T01:10:32;1.23;;;0.10;;
33954;SDS011;20233;50.804;7.126;2023-03-31T01:13:06;3.53;;;0.20;;
33954;SDS011;20233;50.804;7.126;2023-03-31T01:15:32;4.05;;;0.30;;
33954;SDS011;20233;50.804;7.126;2023-03-31T01:17:58;3.35;;;0.30;;
33954;SDS011;20233;50.804;7.126;2023-03-31T01:20:49;3.20;;;0.20;;
33954;SDS011;20233;50.804;7.126;2023-03-31T01:36:49;5.15;;;0.17;;
33954;SDS011;20233;50.804;7.126;2023-03-31T01:39:26;4.85;;;0.10;;
33954;SDS011;20233;50.804;7.126;2023-03-31T01:44:41;3.17;;;0.20;;
33954;SDS011;20233;50.804;7.126;2023-03-31T01:47:18;5.43;;;0.38;;
33954;SDS011;20233;50.804;7.126;2023-03-31T01:49:58;6.85;;;0.47;;
33954;SDS011;20233;50.804;7.126;2023-03-31T01:55:03;5.22;;;0.57;;
33954;SDS011;20233;50.804;7.126;2023-03-31T01:57:34;3.97;;;0.32;;
33954;SDS011;20233;50.804;7.126;2023-03-31T02:00:03;6.47;;;0.30;;
33954;SDS011;20233;50.804;7.126;2023-03-31T02:02:30;4.47;;;0.40;;
33954;SDS011;20233;50.804;7.126;2023-03-31T02:05:02;12.88;;;0.40;;
33954;SDS011;20233;50.804;7.126;2023-03-31T02:07:34;7.03;;;0.68;;
33954;SDS011;20233;50.804;7.126;2023-03-31T02:10:06;5.35;;;0.47;;
33954;SDS011;20233;50.804;7.126;2023-03-31T02:12:34;9.50;;;0.45;;
33954;SDS011;20233;50.804;7.126;2023-03-31T02:15:04;12.57;;;0.90;;
33954;SDS011;20233;50.804;7.126;2023-03-31T02:17:34;5.30;;;0.45;;
33954;SDS011;20233;50.804;7.126;2023-03-31T02:20:09;7.10;;;0.50;;
33954;SDS011;20233;50.804;7.126;2023-03-31T02:22:39;11.82;;;0.93;;
33954;SDS011;20233;50.804;7.126;2023-03-31T02:25:10;9.40;;;0.80;;
33954;SDS011;20233;50.804;7.126;2023-03-31T02:27:39;6.65;;;0.45;;
33954;SDS011;20233;50.804;7.126;2023-03-31T02:30:09;6.90;;;0.50;;
33954;SDS011;20233;50.804;7.126;2023-03-31T02:32:38;9.18;;;0.50;;
33954;SDS011;20233;50.804;7.126;2023-03-31T02:35:07;6.30;;;0.40;;
33954;SDS011;20233;50.804;7.126;2023-03-31T02:37:39;8.18;;;0.52;;
33954;SDS011;20233;50.804;7.126;2023-03-31T02:40:07;4.47;;;0.30;;
33954;SDS011;20233;50.804;7.126;2023-03-31T02:42:37;11.02;;;0.85;;
33954;SDS011;20233;50.804;7.126;2023-03-31T02:45:04;4.75;;;0.60;;
33954;SDS011;20233;50.804;7.126;2023-03-31T02:47:50;4.38;;;0.55;;
33954;SDS011;20233;50.804;7.126;2023-03-31T02:50:16;7.80;;;0.55;;
33954;SDS011;20233;50.804;7.126;2023-03-31T02:57:57;7.68;;;0.60;;
33954;SDS011;20233;50.804;7.126;2023-03-31T03:00:55;6.05;;;0.50;;
33954;SDS011;20233;50.804;7.126;2023-03-31T03:03:33;6.65;;;0.63;;
33954;SDS011;20233;50.804;7.126;2023-03-31T03:06:10;6.18;;;0.38;;
33954;SDS011;20233;50.804;7.126;2023-03-31T03:11:45;8.43;;;0.85;;
33954;SDS011;20233;50.804;7.126;2023-03-31T03:17:46;9.35;;;1.23;;
33954;SDS011;20233;50.804;7.126;2023-03-31T03:20:14;7.35;;;0.30;;
33954;SDS011;20233;50.804;7.126;2023-03-31T03:22:42;8.07;;;0.47;;
33954;SDS011;20233;50.804;7.126;2023-03-31T03:25:09;8.02;;;0.75;;
33954;SDS011;20233;50.804;7.126;2023-03-31T03:27:36;7.57;;;0.60;;
33954;SDS011;20233;50.804;7.126;2023-03-31T03:30:03;5.63;;;0.88;;
33954;SDS011;20233;50.804;7.126;2023-03-31T03:32:30;7.90;;;0.80;;
33954;SDS011;20233;50.804;7.126;2023-03-31T03:34:57;8.05;;;0.95;;
33954;SDS011;20233;50.804;7.126;2023-03-31T03:37:23;9.30;;;0.63;;
33954;SDS011;20233;50.804;7.126;2023-03-31T03:39:49;7.85;;;0.90;;
33954;SDS011;20233;50.804;7.126;2023-03-31T03:42:15;4.95;;;0.55;;
33954;SDS011;20233;50.804;7.126;2023-03-31T03:44:41;6.28;;;0.57;;
33954;SDS011;20233;50.804;7.126;2023-03-31T03:47:07;6.70;;;0.57;;
33954;SDS011;20233;50.804;7.126;2023-03-31T03:49:33;8.23;;;0.73;;
33954;SDS011;20233;50.804;7.126;2023-03-31T03:51:59;4.75;;;0.22;;
33954;SDS011;20233;50.804;7.126;2023-03-31T03:54:24;5.45;;;0.50;;
33954;SDS011;20233;50.804;7.126;2023-03-31T03:56:50;4.57;;;0.40;;
33954;SDS011;20233;50.804;7.126;2023-03-31T03:59:16;5.05;;;0.40;;
33954;SDS011;20233;50.804;7.126;2023-03-31T04:01:41;5.68;;;0.47;;
33954;SDS011;20233;50.804;7.126;2023-03-31T04:04:07;4.03;;;0.30;;
33954;SDS011;20233;50.804;7.126;2023-03-31T04:06:32;6.60;;;0.93;;
33954;SDS011;20233;50.804;7.126;2023-03-31T04:08:58;3.45;;;0.45;;
33954;SDS011;20233;50.804;7.126;2023-03-31T04:11:24;7.70;;;0.30;;
33954;SDS011;20233;50.804;7.126;2023-03-31T04:13:51;3.65;;;0.20;;
33954;SDS011;20233;50.804;7.126;2023-03-31T04:16:17;5.40;;;0.40;;
33954;SDS011;20233;50.804;7.126;2023-03-31T04:18:42;4.78;;;0.30;;
33954;SDS011;20233;50.804;7.126;2023-03-31T04:21:12;5.28;;;0.35;;
33954;SDS011;20233;50.804;7.126;2023-03-31T04:28:39;2.78;;;0.20;;
33954;SDS011;20233;50.804;7.126;2023-03-31T04:31:09;6.75;;;0.38;;
33954;SDS011;20233;50.804;7.126;2023-03-31T04:33:40;3.97;;;0.25;;
33954;SDS011;20233;50.804;7.126;2023-03-31T04:36:10;2.38;;;0.20;;
33954;SDS011;20233;50.804;7.126;2023-03-31T04:38:45;3.38;;;0.50;;
33954;SDS011;20233;50.804;7.126;2023-03-31T04:41:14;1.70;;;0.10;;
33954;SDS011;20233;50.804;7.126;2023-03-31T04:43:41;4.38;;;0.60;;
33954;SDS011;20233;50.804;7.126;2023-03-31T04:46:06;4.50;;;0.20;;
33954;SDS011;20233;50.804;7.126;2023-03-31T04:48:32;2.17;;;0.20;;
33954;SDS011;20233;50.804;7.126;2023-03-31T04:50:58;2.45;;;0.10;;
33954;SDS011;20233;50.804;7.126;2023-03-31T04:53:24;4.60;;;0.15;;
33954;SDS011;20233;50.804;7.126;2023-03-31T04:55:50;3.05;;;0.20;;
33954;SDS011;20233;50.804;7.126;2023-03-31T04:58:16;2.58;;;0.15;;
33954;SDS011;20233;50.804;7.126;2023-03-31T05:00:41;1.70;;;0.15;;
33954;SDS011;20233;50.804;7.126;2023-03-31T05:03:07;3.08;;;0.15;;
33954;SDS011;20233;50.804;7.126;2023-03-31T05:05:33;4.35;;;0.20;;
33954;SDS011;20233;50.804;7.126;2023-03-31T05:08:00;5.97;;;0.47;;
33954;SDS011;20233;50.804;7.126;2023-03-31T05:10:25;2.10;;;0.10;;
33954;SDS011;20233;50.804;7.126;2023-03-31T05:12:51;3.58;;;0.20;;
33954;SDS011;20233;50.804;7.126;2023-03-31T05:15:17;2.92;;;0.20;;
33954;SDS011;20233;50.804;7.126;2023-03-31T05:17:42;2.40;;;0.20;;
33954;SDS011;20233;50.804;7.126;2023-03-31T05:20:09;6.57;;;0.30;;
33954;SDS011;20233;50.804;7.126;2023-03-31T05:22:36;6.63;;;0.30;;
33954;SDS011;20233;50.804;7.126;2023-03-31T05:25:03;2.33;;;0.20;;
33954;SDS011;20233;50.804;7.126;2023-03-31T05:27:30;3.33;;;0.20;;
33954;SDS011;20233;50.804;7.126;2023-03-31T05:29:56;2.25;;;0.15;;
33954;SDS011;20233;50.804;7.126;2023-03-31T05:32:22;3.15;;;0.17;;
33954;SDS011;20233;50.804;7.126;2023-03-31T05:34:48;2.67;;;0.10;;
33954;SDS011;20233;50.804;7.126;2023-03-31T05:37:16;3.72;;;0.20;;
33954;SDS011;20233;50.804;7.126;2023-03-31T05:39:42;2.70;;;0.15;;
33954;SDS011;20233;50.804;7.126;2023-03-31T05:42:08;2.97;;;0.10;;
33954;SDS011;20233;50.804;7.126;2023-03-31T05:44:33;2.80;;;0.10;;
33954;SDS011;20233;50.804;7.126;2023-03-31T05:46:59;2.30;;;0.20;;
33954;SDS011;20233;50.804;7.126;2023-03-31T05:49:25;1.92;;;0.17;;
33954;SDS011;20233;50.804;7.126;2023-03-31T05:51:50;0.80;;;0.10;;
33954;SDS011;20233;50.804;7.126;2023-03-31T05:54:17;3.28;;;0.10;;
33954;SDS011;20233;50.804;7.126;2023-03-31T05:56:42;1.08;;;0.03;;
33954;SDS011;20233;50.804;7.126;2023-03-31T05:59:08;0.52;;;0.17;;
33954;SDS011;20233;50.804;7.126;2023-03-31T06:01:34;1.15;;;0.00;;
33954;SDS011;20233;50.804;7.126;2023-03-31T06:03:59;2.45;;;0.10;;
33954;SDS011;20233;50.804;7.126;2023-03-31T06:06:25;0.70;;;0.28;;
33954;SDS011;20233;50.804;7.126;2023-03-31T06:08:51;1.38;;;0.10;;
33954;SDS011;20233;50.804;7.126;2023-03-31T06:11:18;1.73;;;0.03;;
33954;SDS011;20233;50.804;7.126;2023-03-31T06:13:45;0.95;;;0.10;;
33954;SDS011;20233;50.804;7.126;2023-03-31T06:16:11;1.38;;;0.10;;
33954;SDS011;20233;50.804;7.126;2023-03-31T06:18:38;2.08;;;0.20;;
33954;SDS011;20233;50.804;7.126;2023-03-31T06:21:04;1.02;;;0.00;;
33954;SDS011;20233;50.804;7.126;2023-03-31T06:23:31;2.85;;;0.05;;
33954;SDS011;20233;50.804;7.126;2023-03-31T06:26:03;0.60;;;0.00;;
33954;SDS011;20233;50.804;7.126;2023-03-31T06:28:31;1.02;;;0.00;;
33954;SDS011;20233;50.804;7.126;2023-03-31T06:31:03;0.30;;;0.00;;
33954;SDS011;20233;50.804;7.126;2023-03-31T06:33:37;0.65;;;0.00;;
33954;SDS011;20233;50.804;7.126;2023-03-31T06:36:04;0.52;;;0.10;;
33954;SDS011;20233;50.804;7.126;2023-03-31T06:38:30;1.08;;;0.00;;
33954;SDS011;20233;50.804;7.126;2023-03-31T06:40:58;1.00;;;0.00;;
33954;SDS011;20233;50.804;7.126;2023-03-31T06:43:24;0.20;;;0.00;;
33954;SDS011;20233;50.804;7.126;2023-03-31T06:45:51;1.35;;;0.10;;
33954;SDS011;20233;50.804;7.126;2023-03-31T06:48:17;0.60;;;0.10;;
33954;SDS011;20233;50.804;7.126;2023-03-31T06:50:43;0.73;;;0.08;;
33954;SDS011;20233;50.804;7.126;2023-03-31T06:53:09;1.13;;;0.00;;
33954;SDS011;20233;50.804;7.126;2023-03-31T06:55:35;0.32;;;0.00;;
33954;SDS011;20233;50.804;7.126;2023-03-31T06:58:01;0.70;;;0.00;;
33954;SDS011;20233;50.804;7.126;2023-03-31T07:00:28;2.00;;;0.13;;
33954;SDS011;20233;50.804;7.126;2023-03-31T07:02:53;0.30;;;0.00;;
33954;SDS011;20233;50.804;7.126;2023-03-31T07:05:19;0.93;;;0.00;;
33954;SDS011;20233;50.804;7.126;2023-03-31T07:07:54;1.77;;;0.03;;
33954;SDS011;20233;50.804;7.126;2023-03-31T07:10:22;1.45;;;0.10;;
33954;SDS011;20233;50.804;7.126;2023-03-31T07:12:49;0.77;;;0.10;;
33954;SDS011;20233;50.804;7.126;2023-03-31T07:15:15;1.75;;;0.10;;
33954;SDS011;20233;50.804;7.126;2023-03-31T07:17:41;0.93;;;0.10;;
33954;SDS011;20233;50.804;7.126;2023-03-31T07:20:13;1.50;;;0.10;;
33954;SDS011;20233;50.804;7.126;2023-03-31T07:22:40;0.82;;;0.10;;
33954;SDS011;20233;50.804;7.126;2023-03-31T07:25:10;2.95;;;0.20;;
33954;SDS011;20233;50.804;7.126;2023-03-31T07:27:37;2.42;;;0.10;;
33954;SDS011;20233;50.804;7.126;2023-03-31T07:30:05;2.42;;;0.10;;
33954;SDS011;20233;50.804;7.126;2023-03-31T07:32:33;4.57;;;0.30;;
33954;SDS011;20233;50.804;7.126;2023-03-31T07:34:59;1.40;;;0.10;;
33954;SDS011;20233;50.804;7.126;2023-03-31T07:37:24;1.95;;;0.30;;
33954;SDS011;20233;50.804;7.126;2023-03-31T07:39:50;2.67;;;0.10;;
33954;SDS011;20233;50.804;7.126;2023-03-31T07:42:16;2.22;;;0.10;;
33954;SDS011;20233;50.804;7.126;2023-03-31T07:44:42;2.50;;;0.10;;
33954;SDS011;20233;50.804;7.126;2023-03-31T07:47:07;0.90;;;0.10;;
33954;SDS011;20233;50.804;7.126;2023-03-31T07:49:33;2.50;;;0.10;;
33954;SDS011;20233;50.804;7.126;2023-03-31T07:51:59;8.02;;;0.30;;
33954;SDS011;20233;50.804;7.126;2023-03-31T07:54:26;2.53;;;0.20;;
33954;SDS011;20233;50.804;7.126;2023-03-31T07:56:52;1.70;;;0.10;;
33954;SDS011;20233;50.804;7.126;2023-03-31T07:59:18;2.83;;;0.10;;
33954;SDS011;20233;50.804;7.126;2023-03-31T08:01:44;1.80;;;0.10;;
33954;SDS011;20233;50.804;7.126;2023-03-31T08:04:10;1.50;;;0.10;;
33954;SDS011;20233;50.804;7.126;2023-03-31T08:06:36;2.05;;;0.10;;
33954;SDS011;20233;50.804;7.126;2023-03-31T08:09:03;1.05;;;0.10;;
33954;SDS011;20233;50.804;7.126;2023-03-31T08:11:32;1.75;;;0.10;;
33954;SDS011;20233;50.804;7.126;2023-03-31T08:13:58;1.95;;;0.10;;
33954;SDS011;20233;50.804;7.126;2023-03-31T08:16:24;1.65;;;0.10;;
33954;SDS011;20233;50.804;7.126;2023-03-31T08:18:50;2.53;;;0.10;;
33954;SDS011;20233;50.804;7.126;2023-03-31T08:21:15;2.17;;;0.45;;
33954;SDS011;20233;50.804;7.126;2023-03-31T08:23:41;2.42;;;0.10;;
33954;SDS011;20233;50.804;7.126;2023-03-31T08:26:11;3.78;;;0.80;;
33954;SDS011;20233;50.804;7.126;2023-03-31T08:28:44;3.53;;;0.10;;
33954;SDS011;20233;50.804;7.126;2023-03-31T08:31:12;2.05;;;0.20;;
33954;SDS011;20233;50.804;7.126;2023-03-31T08:33:40;2.38;;;0.10;;
33954;SDS011;20233;50.804;7.126;2023-03-31T08:36:06;4.22;;;0.20;;
33954;SDS011;20233;50.804;7.126;2023-03-31T08:38:38;6.70;;;0.20;;
33954;SDS011;20233;50.804;7.126;2023-03-31T08:41:32;2.72;;;0.20;;
33954;SDS011;20233;50.804;7.126;2023-03-31T08:44:03;3.00;;;0.20;;
33954;SDS011;20233;50.804;7.126;2023-03-31T08:46:35;3.25;;;0.20;;
33954;SDS011;20233;50.804;7.126;2023-03-31T08:49:03;4.47;;;0.20;;
33954;SDS011;20233;50.804;7.126;2023-03-31T08:51:32;3.42;;;0.20;;
33954;SDS011;20233;50.804;7.126;2023-03-31T08:54:14;3.92;;;0.45;;
33954;SDS011;20233;50.804;7.126;2023-03-31T08:56:46;1.65;;;0.17;;
33954;SDS011;20233;50.804;7.126;2023-03-31T08:59:20;3.78;;;0.20;;
33954;SDS011;20233;50.804;7.126;2023-03-31T09:02:08;6.13;;;0.35;;
33954;SDS011;20233;50.804;7.126;2023-03-31T09:05:04;2.20;;;0.20;;
33954;SDS011;20233;50.804;7.126;2023-03-31T09:10:34;5.05;;;0.52;;
33954;SDS011;20233;50.804;7.126;2023-03-31T09:16:01;5.68;;;0.50;;
33954;SDS011;20233;50.804;7.126;2023-03-31T09:18:39;7.75;;;0.52;;
33954;SDS011;20233;50.804;7.126;2023-03-31T09:23:43;4.65;;;0.28;;
33954;SDS011;20233;50.804;7.126;2023-03-31T09:26:19;8.75;;;0.68;;
33954;SDS011;20233;50.804;7.126;2023-03-31T09:28:51;8.38;;;0.73;;
33954;SDS011;20233;50.804;7.126;2023-03-31T09:31:18;5.93;;;0.40;;
33954;SDS011;20233;50.804;7.126;2023-03-31T09:33:45;6.32;;;0.50;;
33954;SDS011;20233;50.804;7.126;2023-03-31T09:36:15;3.90;;;0.40;;
33954;SDS011;20233;50.804;7.126;2023-03-31T09:38:43;4.10;;;0.30;;
33954;SDS011;20233;50.804;7.126;2023-03-31T09:41:09;9.20;;;0.70;;
33954;SDS011;20233;50.804;7.126;2023-03-31T09:43:39;3.63;;;0.47;;
33954;SDS011;20233;50.804;7.126;2023-03-31T09:46:12;6.20;;;0.50;;
33954;SDS011;20233;50.804;7.126;2023-03-31T09:48:49;7.93;;;0.68;;
33954;SDS011;20233;50.804;7.126;2023-03-31T09:51:22;4.20;;;0.45;;
33954;SDS011;20233;50.804;7.126;2023-03-31T09:53:56;6.90;;;0.55;;
33954;SDS011;20233;50.804;7.126;2023-03-31T09:59:19;5.90;;;0.40;;
33954;SDS011;20233;50.804;7.126;2023-03-31T10:01:51;6.75;;;0.52;;
33954;SDS011;20233;50.804;7.126;2023-03-31T10:04:24;9.35;;;0.70;;
33954;SDS011;20233;50.804;7.126;2023-03-31T10:06:52;6.93;;;0.45;;
33954;SDS011;20233;50.804;7.126;2023-03-31T10:09:29;5.40;;;0.47;;
33954;SDS011;20233;50.804;7.126;2023-03-31T10:11:56;4.88;;;0.32;;
33954;SDS011;20233;50.804;7.126;2023-03-31T10:14:31;6.65;;;0.70;;
33954;SDS011;20233;50.804;7.126;2023-03-31T10:17:04;8.48;;;0.60;;
33954;SDS011;20233;50.804;7.126;2023-03-31T10:19:34;5.45;;;0.77;;
33954;SDS011;20233;50.804;7.126;2023-03-31T10:22:05;4.65;;;0.43;;
33954;SDS011;20233;50.804;7.126;2023-03-31T10:24:39;6.22;;;1.08;;
33954;SDS011;20233;50.804;7.126;2023-03-31T10:27:23;6.47;;;0.70;;
33954;SDS011;20233;50.804;7.126;2023-03-31T10:29:55;6.68;;;1.17;;
33954;SDS011;20233;50.804;7.126;2023-03-31T10:34:49;5.35;;;0.75;;
33954;SDS011;20233;50.804;7.126;2023-03-31T10:37:16;5.70;;;0.25;;
33954;SDS011;20233;50.804;7.126;2023-03-31T10:39:47;6.97;;;1.00;;
33954;SDS011;20233;50.804;7.126;2023-03-31T10:42:30;5.18;;;0.30;;
33954;SDS011;20233;50.804;7.126;2023-03-31T10:45:09;4.90;;;0.43;;
33954;SDS011;20233;50.804;7.126;2023-03-31T10:50:05;5.35;;;0.30;;
33954;SDS011;20233;50.804;7.126;2023-03-31T10:52:45;5.13;;;0.30;;
33954;SDS011;20233;50.804;7.126;2023-03-31T10:55:12;4.72;;;0.35;;
33954;SDS011;20233;50.804;7.126;2023-03-31T11:00:24;4.78;;;0.80;;
33954;SDS011;20233;50.804;7.126;2023-03-31T11:05:46;6.32;;;0.20;;
33954;SDS011;20233;50.804;7.126;2023-03-31T11:08:31;3.20;;;0.30;;
33954;SDS011;20233;50.804;7.126;2023-03-31T11:11:26;4.80;;;0.40;;
33954;SDS011;20233;50.804;7.126;2023-03-31T11:17:25;3.58;;;0.30;;
33954;SDS011;20233;50.804;7.126;2023-03-31T11:22:25;3.05;;;0.20;;
33954;SDS011;20233;50.804;7.126;2023-03-31T11:30:42;2.53;;;0.10;;
33954;SDS011;20233;50.804;7.126;2023-03-31T11:36:08;4.28;;;0.40;;
33954;SDS011;20233;50.804;7.126;2023-03-31T11:41:31;3.33;;;0.10;;
33954;SDS011;20233;50.804;7.126;2023-03-31T11:44:00;1.60;;;0.10;;
33954;SDS011;20233;50.804;7.126;2023-03-31T11:49:22;5.18;;;0.20;;
33954;SDS011;20233;50.804;7.126;2023-03-31T11:51:56;4.60;;;0.20;;
33954;SDS011;20233;50.804;7.126;2023-03-31T11:54:41;3.50;;;0.20;;
33954;SDS011;20233;50.804;7.126;2023-03-31T11:57:12;2.55;;;0.20;;
33954;SDS011;20233;50.804;7.126;2023-03-31T11:59:54;8.88;;;0.28;;
33954;SDS011;20233;50.804;7.126;2023-03-31T12:02:33;4.05;;;0.38;;
33954;SDS011;20233;50.804;7.126;2023-03-31T12:05:09;5.78;;;0.60;;
33954;SDS011;20233;50.804;7.126;2023-03-31T12:12:50;5.63;;;0.30;;
33954;SDS011;20233;50.804;7.126;2023-03-31T12:18:08;2.17;;;0.20;;
33954;SDS011;20233;50.804;7.126;2023-03-31T12:20:46;4.45;;;0.25;;
33954;SDS011;20233;50.804;7.126;2023-03-31T12:28:23;3.17;;;0.30;;
33954;SDS011;20233;50.804;7.126;2023-03-31T12:30:51;1.35;;;0.10;;
33954;SDS011;20233;50.804;7.126;2023-03-31T12:39:08;3.30;;;0.10;;
33954;SDS011;20233;50.804;7.126;2023-03-31T12:52:36;2.50;;;0.30;;
33954;SDS011;20233;50.804;7.126;2023-03-31T12:58:40;3.22;;;0.30;;
33954;SDS011;20233;50.804;7.126;2023-03-31T13:14:17;3.80;;;0.47;;
33954;SDS011;20233;50.804;7.126;2023-03-31T13:16:40;4.80;;;0.30;;
33954;SDS011;20233;50.804;7.126;2023-03-31T13:19:08;6.57;;;0.45;;
33954;SDS011;20233;50.804;7.126;2023-03-31T13:21:56;8.75;;;0.55;;
33954;SDS011;20233;50.804;7.126;2023-03-31T13:24:24;7.70;;;0.50;;
33954;SDS011;20233;50.804;7.126;2023-03-31T13:26:50;7.07;;;0.40;;
33954;SDS011;20233;50.804;7.126;2023-03-31T13:29:19;5.95;;;0.70;;
33954;SDS011;20233;50.804;7.126;2023-03-31T13:37:34;4.90;;;0.30;;
33954;SDS011;20233;50.804;7.126;2023-03-31T13:59:43;6.00;;;0.57;;
33954;SDS011;20233;50.804;7.126;2023-03-31T14:08:00;5.35;;;0.28;;
33954;SDS011;20233;50.804;7.126;2023-03-31T14:10:34;6.85;;;0.40;;
33954;SDS011;20233;50.804;7.126;2023-03-31T14:13:06;4.15;;;0.20;;
33954;SDS011;20233;50.804;7.126;2023-03-31T14:15:50;2.35;;;0.10;;
33954;SDS011;20233;50.804;7.126;2023-03-31T14:18:26;4.88;;;0.35;;
33954;SDS011;20233;50.804;7.126;2023-03-31T14:20:57;2.08;;;0.17;;
33954;SDS011;20233;50.804;7.126;2023-03-31T14:26:17;5.38;;;0.20;;
33954;SDS011;20233;50.804;7.126;2023-03-31T14:34:56;3.08;;;0.40;;
33954;SDS011;20233;50.804;7.126;2023-03-31T14:37:24;5.32;;;0.40;;
33954;SDS011;20233;50.804;7.126;2023-03-31T14:39:52;8.55;;;0.45;;
33954;SDS011;20233;50.804;7.126;2023-03-31T14:42:22;3.35;;;0.38;;
33954;SDS011;20233;50.804;7.126;2023-03-31T14:45:23;2.70;;;0.70;;
33954;SDS011;20233;50.804;7.126;2023-03-31T14:48:23;3.25;;;0.50;;
33954;SDS011;20233;50.804;7.126;2023-03-31T14:50:43;2.90;;;0.35;;
33954;SDS011;20233;50.804;7.126;2023-03-31T14:53:21;3.83;;;0.30;;
33954;SDS011;20233;50.804;7.126;2023-03-31T14:55:48;4.82;;;0.20;;
33954;SDS011;20233;50.804;7.126;2023-03-31T14:58:16;4.78;;;0.45;;
33954;SDS011;20233;50.804;7.126;2023-03-31T15:00:52;4.32;;;0.20;;
33954;SDS011;20233;50.804;7.126;2023-03-31T15:03:18;4.35;;;0.10;;
33954;SDS011;20233;50.804;7.126;2023-03-31T15:05:44;4.55;;;0.20;;
33954;SDS011;20233;50.804;7.126;2023-03-31T15:08:15;5.88;;;0.65;;
33954;SDS011;20233;50.804;7.126;2023-03-31T15:10:44;6.57;;;0.45;;
33954;SDS011;20233;50.804;7.126;2023-03-31T15:13:26;2.42;;;0.10;;
33954;SDS011;20233;50.804;7.126;2023-03-31T15:19:02;2.97;;;0.40;;
33954;SDS011;20233;50.804;7.126;2023-03-31T15:21:33;4.65;;;0.20;;
33954;SDS011;20233;50.804;7.126;2023-03-31T15:24:04;3.03;;;0.20;;
33954;SDS011;20233;50.804;7.126;2023-03-31T15:26:31;2.20;;;0.20;;
33954;SDS011;20233;50.804;7.126;2023-03-31T15:29:07;6.78;;;0.30;;
33954;SDS011;20233;50.804;7.126;2023-03-31T15:31:39;6.28;;;0.50;;
33954;SDS011;20233;50.804;7.126;2023-03-31T15:34:13;2.63;;;0.20;;
33954;SDS011;20233;50.804;7.126;2023-03-31T15:36:43;6.60;;;0.50;;
33954;SDS011;20233;50.804;7.126;2023-03-31T15:39:09;3.58;;;0.40;;
33954;SDS011;20233;50.804;7.126;2023-03-31T15:41:36;4.53;;;0.75;;
33954;SDS011;20233;50.804;7.126;2023-03-31T15:44:06;5.13;;;0.75;;
33954;SDS011;20233;50.804;7.126;2023-03-31T15:46:59;5.05;;;0.50;;
33954;SDS011;20233;50.804;7.126;2023-03-31T15:49:30;3.57;;;0.33;;
33954;SDS011;20233;50.804;7.126;2023-03-31T15:51:56;2.25;;;0.40;;
33954;SDS011;20233;50.804;7.126;2023-03-31T15:54:37;5.40;;;0.10;;
33954;SDS011;20233;50.804;7.126;2023-03-31T15:57:07;1.40;;;0.20;;
33954;SDS011;20233;50.804;7.126;2023-03-31T15:59:46;2.53;;;0.20;;
33954;SDS011;20233;50.804;7.126;2023-03-31T16:02:15;3.97;;;0.20;;
33954;SDS011;20233;50.804;7.126;2023-03-31T16:04:46;2.10;;;0.22;;
33954;SDS011;20233;50.804;7.126;2023-03-31T16:07:15;3.78;;;0.20;;
33954;SDS011;20233;50.804;7.126;2023-03-31T16:09:44;4.10;;;0.15;;
33954;SDS011;20233;50.804;7.126;2023-03-31T16:12:30;3.15;;;0.20;;
33954;SDS011;20233;50.804;7.126;2023-03-31T16:15:08;4.40;;;0.30;;
33954;SDS011;20233;50.804;7.126;2023-03-31T16:17:57;5.35;;;0.20;;
33954;SDS011;20233;50.804;7.126;2023-03-31T16:20:27;3.50;;;0.50;;
33954;SDS011;20233;50.804;7.126;2023-03-31T16:23:12;3.53;;;0.30;;
33954;SDS011;20233;50.804;7.126;2023-03-31T16:25:41;3.75;;;0.20;;
33954;SDS011;20233;50.804;7.126;2023-03-31T16:28:13;2.03;;;0.10;;
33954;SDS011;20233;50.804;7.126;2023-03-31T16:30:44;2.58;;;0.20;;
33954;SDS011;20233;50.804;7.126;2023-03-31T16:35:38;1.42;;;0.10;;
33954;SDS011;20233;50.804;7.126;2023-03-31T16:38:10;2.70;;;0.15;;
33954;SDS011;20233;50.804;7.126;2023-03-31T16:40:37;1.17;;;0.10;;
33954;SDS011;20233;50.804;7.126;2023-03-31T16:43:06;1.67;;;0.10;;
33954;SDS011;20233;50.804;7.126;2023-03-31T16:45:39;2.88;;;0.10;;
33954;SDS011;20233;50.804;7.126;2023-03-31T16:48:10;1.15;;;0.20;;
33954;SDS011;20233;50.804;7.126;2023-03-31T16:50:36;4.20;;;0.20;;
33954;SDS011;20233;50.804;7.126;2023-03-31T16:53:02;4.00;;;0.20;;
33954;SDS011;20233;50.804;7.126;2023-03-31T16:55:28;1.45;;;0.17;;
33954;SDS011;20233;50.804;7.126;2023-03-31T16:57:58;3.72;;;0.10;;
33954;SDS011;20233;50.804;7.126;2023-03-31T17:00:27;1.23;;;0.00;;
33954;SDS011;20233;50.804;7.126;2023-03-31T17:02:56;1.67;;;0.10;;
33954;SDS011;20233;50.804;7.126;2023-03-31T17:05:23;1.35;;;0.13;;
33954;SDS011;20233;50.804;7.126;2023-03-31T17:07:49;4.22;;;0.22;;
33954;SDS011;20233;50.804;7.126;2023-03-31T17:10:15;1.85;;;0.20;;
33954;SDS011;20233;50.804;7.126;2023-03-31T17:12:41;1.83;;;0.40;;
33954;SDS011;20233;50.804;7.126;2023-03-31T17:15:07;2.70;;;0.10;;
33954;SDS011;20233;50.804;7.126;2023-03-31T17:17:33;1.42;;;0.10;;
33954;SDS011;20233;50.804;7.126;2023-03-31T17:19:59;1.83;;;0.10;;
33954;SDS011;20233;50.804;7.126;2023-03-31T17:22:24;3.28;;;0.22;;
33954;SDS011;20233;50.804;7.126;2023-03-31T17:24:50;3.40;;;0.20;;
33954;SDS011;20233;50.804;7.126;2023-03-31T17:27:21;2.58;;;0.20;;
33954;SDS011;20233;50.804;7.126;2023-03-31T17:29:48;1.88;;;0.32;;
33954;SDS011;20233;50.804;7.126;2023-03-31T17:32:13;3.13;;;0.20;;
33954;SDS011;20233;50.804;7.126;2023-03-31T17:34:40;1.42;;;0.10;;
33954;SDS011;20233;50.804;7.126;2023-03-31T17:37:06;5.30;;;0.45;;
33954;SDS011;20233;50.804;7.126;2023-03-31T17:39:32;2.38;;;0.20;;
33954;SDS011;20233;50.804;7.126;2023-03-31T17:41:57;2.78;;;0.10;;
33954;SDS011;20233;50.804;7.126;2023-03-31T17:44:23;3.03;;;0.10;;
33954;SDS011;20233;50.804;7.126;2023-03-31T17:46:49;2.28;;;0.17;;
33954;SDS011;20233;50.804;7.126;2023-03-31T17:49:15;2.72;;;0.20;;
33954;SDS011;20233;50.804;7.126;2023-03-31T17:51:41;1.92;;;0.20;;
33954;SDS011;20233;50.804;7.126;2023-03-31T17:54:08;4.63;;;0.47;;